createdAt,value
2022-09-06T00:01:23.279Z,101186.69
2022-09-06T00:03:51.211Z,101188.34
2022-09-06T00:06:20.218Z,101183.38
2022-09-06T00:08:48.376Z,101182.63
2022-09-06T00:11:15.982Z,101182.22
2022-09-06T00:13:42.788Z,101183.63
2022-09-06T00:16:12.280Z,101180.03
2022-09-06T00:18:39.422Z,101184.66
2022-09-06T00:21:17.912Z,101189.59
2022-09-06T00:23:44.386Z,101195.81
2022-09-06T00:28:38.098Z,101185.81
2022-09-06T00:31:16.375Z,101197.97
2022-09-06T00:33:43.903Z,101197.66
2022-09-06T00:36:12.201Z,101195.28
2022-09-06T00:38:39.557Z,101194.84
2022-09-06T00:41:08.049Z,101194.50
2022-09-06T00:43:34.635Z,101198.91
2022-09-06T00:46:03.347Z,101190.25
2022-09-06T00:48:30.433Z,101190.91
2022-09-06T00:51:00.800Z,101188.13
2022-09-06T00:53:28.108Z,101184.34
2022-09-06T00:55:55.636Z,101185.19
2022-09-06T00:58:22.621Z,101187.72
2022-09-06T01:00:49.110Z,101175.84
2022-09-06T01:03:15.611Z,101180.34
2022-09-06T01:06:01.387Z,101172.41
2022-09-06T01:08:47.315Z,101175.53
2022-09-06T01:11:27.404Z,101180.53
2022-09-06T01:14:18.795Z,101182.09
2022-09-06T01:17:16.630Z,101179.41
2022-09-06T01:19:45.796Z,101181.78
2022-09-06T01:22:19.629Z,101190.75
2022-09-06T01:24:55.137Z,101191.50
2022-09-06T01:27:33.838Z,101187.84
2022-09-06T01:30:13.089Z,101189.78
2022-09-06T01:33:07.459Z,101194.94
2022-09-06T01:35:40.220Z,101204.50
2022-09-06T01:38:08.039Z,101206.13
2022-09-06T01:40:36.423Z,101201.66
2022-09-06T01:43:10.637Z,101204.84
2022-09-06T01:45:57.003Z,101189.53
2022-09-06T01:48:48.236Z,101192.91
2022-09-06T01:51:32.161Z,101185.63
2022-09-06T01:54:16.580Z,101197.66
2022-09-06T01:56:55.753Z,101193.63
2022-09-06T01:59:33.969Z,101199.75
2022-09-06T02:02:08.000Z,101196.50
2022-09-06T02:04:47.248Z,101193.31
2022-09-06T02:07:27.678Z,101199.91
2022-09-06T02:10:00.388Z,101199.75
2022-09-06T02:12:30.572Z,101206.78
2022-09-06T02:15:03.068Z,101197.50
2022-09-06T02:17:37.339Z,101193.94
2022-09-06T02:20:13.012Z,101185.84
2022-09-06T02:22:43.752Z,101189.03
2022-09-06T02:25:15.741Z,101192.91
2022-09-06T02:27:42.260Z,101196.09
2022-09-06T02:30:09.233Z,101186.53
2022-09-06T02:32:43.009Z,101194.53
2022-09-06T02:35:14.612Z,101188.50
2022-09-06T02:37:41.897Z,101201.50
2022-09-06T02:40:10.235Z,101191.91
2022-09-06T02:42:36.752Z,101196.91
2022-09-06T02:45:05.113Z,101192.50
2022-09-06T02:47:31.582Z,101202.88
2022-09-06T02:49:58.089Z,101186.44
2022-09-06T02:52:24.632Z,101193.28
2022-09-06T02:54:51.701Z,101195.13
2022-09-06T02:57:18.209Z,101193.63
2022-09-06T02:59:45.943Z,101196.34
2022-09-06T03:02:12.474Z,101187.84
2022-09-06T03:04:39.007Z,101185.03
2022-09-06T03:07:05.448Z,101179.56
2022-09-06T03:09:31.909Z,101191.75
2022-09-06T03:11:58.403Z,101195.13
2022-09-06T03:14:24.816Z,101195.38
2022-09-06T03:16:51.366Z,101186.53
2022-09-06T03:19:18.038Z,101186.63
2022-09-06T03:21:44.480Z,101185.69
2022-09-06T03:24:10.962Z,101172.69
2022-09-06T03:26:37.393Z,101171.94
2022-09-06T03:29:03.876Z,101176.69
2022-09-06T03:31:30.335Z,101174.56
2022-09-06T03:33:56.833Z,101172.78
2022-09-06T03:36:23.360Z,101178.16
2022-09-06T03:38:51.127Z,101188.53
2022-09-06T03:41:17.562Z,101187.59
2022-09-06T03:43:44.002Z,101181.28
2022-09-06T03:46:10.488Z,101184.56
2022-09-06T03:48:36.936Z,101176.16
2022-09-06T03:51:03.407Z,101167.47
2022-09-06T03:53:30.072Z,101168.84
2022-09-06T03:56:00.164Z,101168.94
2022-09-06T03:58:30.925Z,101168.09
2022-09-06T04:01:01.906Z,101168.69
2022-09-06T04:03:28.434Z,101166.56
2022-09-06T04:05:54.911Z,101173.69
2022-09-06T04:08:21.445Z,101178.50
2022-09-06T04:10:51.317Z,101179.56
2022-09-06T04:13:18.122Z,101184.06
2022-09-06T04:15:48.184Z,101185.06
2022-09-06T04:18:15.729Z,101188.31
2022-09-06T04:20:42.505Z,101187.28
2022-09-06T04:23:09.264Z,101198.13
2022-09-06T04:25:35.720Z,101195.53
2022-09-06T04:28:02.422Z,101203.66
2022-09-06T04:30:28.962Z,101206.47
2022-09-06T04:32:55.407Z,101202.94
2022-09-06T04:35:21.890Z,101208.16
2022-09-06T04:37:48.385Z,101208.66
2022-09-06T04:40:15.103Z,101204.25
2022-09-06T04:42:41.520Z,101205.63
2022-09-06T04:45:08.501Z,101204.16
2022-09-06T04:47:34.969Z,101201.44
2022-09-06T04:50:01.471Z,101200.94
2022-09-06T04:52:30.190Z,101213.75
2022-09-06T04:54:57.146Z,101211.41
2022-09-06T04:57:23.599Z,101199.56
2022-09-06T04:59:50.048Z,101208.91
2022-09-06T05:02:16.506Z,101204.22
2022-09-06T05:04:42.992Z,101206.34
2022-09-06T05:07:09.552Z,101211.41
2022-09-06T05:09:36.773Z,101212.81
2022-09-06T05:12:03.593Z,101212.25
2022-09-06T05:14:30.050Z,101215.84
2022-09-06T05:16:56.635Z,101210.13
2022-09-06T05:19:23.124Z,101218.88
2022-09-06T05:21:51.492Z,101225.94
2022-09-06T05:24:18.060Z,101238.50
2022-09-06T05:26:44.528Z,101243.91
2022-09-06T05:29:11.037Z,101244.69
2022-09-06T05:31:37.564Z,101249.56
2022-09-06T05:34:04.077Z,101246.16
2022-09-06T05:36:31.413Z,101249.03
2022-09-06T05:38:58.674Z,101250.38
2022-09-06T05:41:26.173Z,101238.31
2022-09-06T05:43:52.942Z,101238.84
2022-09-06T05:46:19.929Z,101237.56
2022-09-06T05:49:07.788Z,101236.03
2022-09-06T05:51:34.277Z,101235.66
2022-09-06T05:54:00.713Z,101247.75
2022-09-06T05:56:27.166Z,101235.06
2022-09-06T05:58:53.717Z,101246.41
2022-09-06T06:01:26.619Z,101234.69
2022-09-06T06:04:04.987Z,101237.69
2022-09-06T06:06:33.293Z,101239.50
2022-09-06T06:09:00.477Z,101245.72
2022-09-06T06:11:27.787Z,101236.50
2022-09-06T06:13:54.429Z,101242.13
2022-09-06T06:16:22.546Z,101239.19
2022-09-06T06:18:52.344Z,101241.34
2022-09-06T06:21:23.185Z,101244.75
2022-09-06T06:23:52.349Z,101250.44
2022-09-06T06:26:19.721Z,101246.94
2022-09-06T06:28:46.587Z,101235.28
2022-09-06T06:31:13.172Z,101235.00
2022-09-06T06:33:39.949Z,101239.16
2022-09-06T06:36:07.769Z,101244.66
2022-09-06T06:38:37.592Z,101245.97
2022-09-06T06:41:07.276Z,101244.50
2022-09-06T06:43:38.048Z,101239.50
2022-09-06T06:46:12.439Z,101240.06
2022-09-06T06:48:43.642Z,101247.38
2022-09-06T06:51:12.320Z,101242.31
2022-09-06T06:53:38.911Z,101244.63
2022-09-06T06:56:15.512Z,101238.78
2022-09-06T06:58:42.654Z,101244.84
2022-09-06T07:01:10.160Z,101241.34
2022-09-06T07:03:36.785Z,101234.06
2022-09-06T07:06:12.267Z,101234.22
2022-09-06T07:08:40.341Z,101233.00
2022-09-06T07:11:08.102Z,101235.28
2022-09-06T07:13:34.638Z,101234.88
2022-09-06T07:16:13.479Z,101236.31
2022-09-06T07:18:42.273Z,101230.72
2022-09-06T07:24:06.816Z,101238.84
2022-09-06T07:26:35.992Z,101237.28
2022-09-06T07:29:04.523Z,101235.72
2022-09-06T07:34:19.249Z,101242.97
2022-09-06T07:36:45.752Z,101252.78
2022-09-06T07:39:12.206Z,101261.25
2022-09-06T07:41:38.663Z,101252.91
2022-09-06T07:44:05.110Z,101254.69
2022-09-06T07:46:31.629Z,101256.00
2022-09-06T07:48:58.203Z,101256.91
2022-09-06T07:51:24.671Z,101250.19
2022-09-06T07:54:07.474Z,101254.44
2022-09-06T07:56:41.796Z,101250.69
2022-09-06T07:59:09.239Z,101254.34
2022-09-06T08:01:37.373Z,101259.47
2022-09-06T08:04:12.806Z,101264.09
2022-09-06T08:09:28.260Z,101250.31
2022-09-06T08:11:54.861Z,101254.28
2022-09-06T08:14:21.377Z,101253.84
2022-09-06T08:16:47.863Z,101254.25
2022-09-06T08:19:14.392Z,101244.69
2022-09-06T08:21:40.905Z,101249.69
2022-09-06T08:24:09.778Z,101243.75
2022-09-06T08:26:42.994Z,101244.63
2022-09-06T08:29:10.852Z,101238.59
2022-09-06T08:31:40.340Z,101245.72
2022-09-06T08:34:07.333Z,101235.69
2022-09-06T08:36:34.488Z,101244.34
2022-09-06T08:39:03.816Z,101244.69
2022-09-06T08:41:45.394Z,101233.63
2022-09-06T08:47:08.723Z,101236.09
2022-09-06T08:49:39.456Z,101226.59
2022-09-06T08:52:25.740Z,101236.00
2022-09-06T08:55:12.395Z,101237.09
2022-09-06T08:58:08.492Z,101230.22
2022-09-06T09:00:36.998Z,101233.81
2022-09-06T09:03:03.499Z,101236.28
2022-09-06T09:05:33.609Z,101230.81
2022-09-06T09:08:37.292Z,101225.28
2022-09-06T09:11:07.467Z,101224.91
2022-09-06T09:13:39.679Z,101224.84
2022-09-06T09:16:06.859Z,101218.91
2022-09-06T09:18:38.552Z,101210.25
2022-09-06T09:21:05.467Z,101213.81
2022-09-06T09:23:32.457Z,101210.81
2022-09-06T09:26:04.724Z,101210.56
2022-09-06T09:28:31.674Z,101214.75
2022-09-06T09:30:58.481Z,101220.41
2022-09-06T09:33:36.983Z,101220.06
2022-09-06T09:36:09.711Z,101215.38
2022-09-06T09:38:49.240Z,101213.66
2022-09-06T09:41:32.091Z,101215.41
2022-09-06T09:44:17.764Z,101217.25
2022-09-06T09:46:44.607Z,101210.16
2022-09-06T09:49:29.247Z,101203.50
2022-09-06T09:52:13.751Z,101202.81
2022-09-06T09:54:44.447Z,101198.78
2022-09-06T09:57:18.460Z,101196.44
2022-09-06T09:59:58.214Z,101187.84
2022-09-06T10:02:32.482Z,101188.03
2022-09-06T10:05:12.115Z,101189.06
2022-09-06T10:07:51.926Z,101187.75
2022-09-06T10:10:23.556Z,101178.38
2022-09-06T10:13:20.413Z,101167.97
2022-09-06T10:15:48.204Z,101172.97
2022-09-06T10:18:41.391Z,101165.63
2022-09-06T10:21:14.941Z,101162.84
2022-09-06T10:24:27.834Z,101160.19
2022-09-06T10:27:01.958Z,101160.81
2022-09-06T10:29:45.436Z,101150.44
2022-09-06T10:32:30.934Z,101142.75
2022-09-06T10:35:09.394Z,101129.28
2022-09-06T10:37:44.994Z,101124.44
2022-09-06T10:40:16.391Z,101132.50
2022-09-06T10:42:47.059Z,101131.22
2022-09-06T10:45:21.928Z,101138.59
2022-09-06T10:48:12.579Z,101138.56
2022-09-06T10:51:01.143Z,101136.53
2022-09-06T10:53:37.655Z,101132.41
2022-09-06T10:56:09.450Z,101122.09
2022-09-06T11:02:03.757Z,101117.91
2022-09-06T11:07:42.765Z,101107.28
2022-09-06T11:10:21.436Z,101096.84
2022-09-06T11:13:03.205Z,101104.09
2022-09-06T11:15:37.377Z,101102.84
2022-09-06T11:18:15.604Z,101089.88
2022-09-06T11:20:52.334Z,101089.19
2022-09-06T11:23:41.022Z,101083.03
2022-09-06T11:26:38.588Z,101080.53
2022-09-06T11:29:09.673Z,101083.84
2022-09-06T11:32:19.048Z,101087.00
2022-09-06T11:34:57.660Z,101082.56
2022-09-06T11:37:49.585Z,101076.91
2022-09-06T11:40:26.750Z,101068.41
2022-09-06T11:42:54.384Z,101067.13
2022-09-06T11:45:39.237Z,101068.13
2022-09-06T11:48:24.159Z,101059.97
2022-09-06T11:50:53.386Z,101054.66
2022-09-06T11:53:21.802Z,101049.16
2022-09-06T11:55:50.906Z,101049.13
2022-09-06T11:58:17.686Z,101040.72
2022-09-06T12:00:46.421Z,101047.13
2022-09-06T12:06:43.715Z,101042.69
2022-09-06T12:09:28.674Z,101027.16
2022-09-06T12:11:56.594Z,101030.00
2022-09-06T12:14:42.956Z,101024.97
2022-09-06T12:17:09.782Z,101021.72
2022-09-06T12:20:06.805Z,101020.03
2022-09-06T12:22:33.426Z,101008.81
2022-09-06T12:25:02.486Z,101009.06
2022-09-06T12:27:35.141Z,101005.94
2022-09-06T12:30:08.912Z,101001.56
2022-09-06T12:32:43.925Z,101005.78
2022-09-06T12:38:24.756Z,100996.56
2022-09-06T12:40:54.743Z,100993.91
2022-09-06T12:43:21.276Z,100991.34
2022-09-06T12:45:51.480Z,100991.72
2022-09-06T12:48:29.534Z,100987.53
2022-09-06T12:51:03.823Z,100985.78
2022-09-06T12:53:31.631Z,100972.69
2022-09-06T12:56:12.145Z,100966.34
2022-09-06T12:58:39.574Z,100956.53
2022-09-06T13:01:27.422Z,100959.47
2022-09-06T13:03:57.332Z,100951.44
2022-09-06T13:06:27.186Z,100949.50
2022-09-06T13:08:56.919Z,100947.78
2022-09-06T13:11:27.620Z,100937.25
2022-09-06T13:13:55.343Z,100937.56
2022-09-06T13:16:25.214Z,100930.63
2022-09-06T13:18:52.479Z,100930.69
2022-09-06T13:21:46.326Z,100927.97
2022-09-06T13:24:22.634Z,100907.41
2022-09-06T13:26:49.570Z,100915.22
2022-09-06T13:29:30.754Z,100917.16
2022-09-06T13:31:59.725Z,100911.84
2022-09-06T13:34:33.675Z,100919.00
2022-09-06T13:37:05.345Z,100909.94
2022-09-06T13:39:38.096Z,100903.94
2022-09-06T13:42:07.566Z,100898.56
2022-09-06T13:44:36.832Z,100902.38
2022-09-06T13:47:03.846Z,100899.78
2022-09-06T13:49:31.133Z,100899.53
2022-09-06T13:52:00.355Z,100901.16
2022-09-06T13:54:27.021Z,100888.84
2022-09-06T13:56:53.557Z,100889.91
2022-09-06T13:59:20.165Z,100882.03
2022-09-06T14:01:49.771Z,100873.19
2022-09-06T14:04:21.227Z,100874.97
2022-09-06T14:06:49.144Z,100882.25
2022-09-06T14:09:15.622Z,100884.06
2022-09-06T14:11:47.504Z,100875.13
2022-09-06T14:14:15.044Z,100876.88
2022-09-06T14:16:41.489Z,100867.03
2022-09-06T14:19:07.947Z,100865.94
2022-09-06T14:21:34.670Z,100862.41
2022-09-06T14:24:04.330Z,100857.25
2022-09-06T14:26:33.074Z,100854.72
2022-09-06T14:28:59.551Z,100847.63
2022-09-06T14:31:27.898Z,100851.28
2022-09-06T14:33:56.576Z,100848.56
2022-09-06T14:36:26.332Z,100838.69
2022-09-06T14:38:53.477Z,100834.22
2022-09-06T14:41:20.560Z,100834.97
2022-09-06T14:43:52.656Z,100834.09
2022-09-06T14:46:21.989Z,100837.81
2022-09-06T14:48:49.508Z,100828.97
2022-09-06T14:51:23.927Z,100830.69
2022-09-06T14:53:57.028Z,100831.66
2022-09-06T14:56:24.264Z,100827.34
2022-09-06T14:58:50.768Z,100820.25
2022-09-06T15:01:20.608Z,100827.31
2022-09-06T15:03:51.493Z,100821.91
2022-09-06T15:06:20.414Z,100818.25
2022-09-06T15:08:48.460Z,100823.50
2022-09-06T15:11:15.807Z,100815.50
2022-09-06T15:13:42.691Z,100801.34
2022-09-06T15:16:10.946Z,100797.78
2022-09-06T15:18:37.512Z,100797.72
2022-09-06T15:21:15.670Z,100797.78
2022-09-06T15:23:45.817Z,100794.31
2022-09-06T15:26:13.558Z,100789.03
2022-09-06T15:28:41.929Z,100784.53
2022-09-06T15:31:08.779Z,100782.78
2022-09-06T15:33:37.433Z,100780.13
2022-09-06T15:36:06.441Z,100782.66
2022-09-06T15:38:34.169Z,100780.81
2022-09-06T15:41:12.641Z,100776.31
2022-09-06T15:43:42.444Z,100770.03
2022-09-06T15:46:09.706Z,100766.47
2022-09-06T15:48:51.277Z,100765.59
2022-09-06T15:51:19.892Z,100768.22
2022-09-06T15:53:47.057Z,100756.69
2022-09-06T15:56:15.107Z,100756.69
2022-09-06T15:58:41.764Z,100756.66
2022-09-06T16:01:27.020Z,100760.19
2022-09-06T16:04:05.502Z,100754.06
2022-09-06T16:06:38.437Z,100747.00
2022-09-06T16:09:11.505Z,100755.78
2022-09-06T16:11:38.055Z,100754.84
2022-09-06T16:14:06.719Z,100754.78
2022-09-06T16:16:34.520Z,100757.41
2022-09-06T16:19:01.476Z,100764.41
2022-09-06T16:21:31.419Z,100759.03
2022-09-06T16:24:00.584Z,100773.09
2022-09-06T16:26:32.074Z,100773.06
2022-09-06T16:28:59.509Z,100777.44
2022-09-06T16:31:26.832Z,100775.69
2022-09-06T16:33:53.824Z,100772.97
2022-09-06T16:36:21.611Z,100772.94
2022-09-06T16:38:48.433Z,100779.91
2022-09-06T16:41:25.226Z,100784.28
2022-09-06T16:43:52.619Z,100783.34
2022-09-06T16:46:21.098Z,100789.59
2022-09-06T16:48:52.623Z,100783.38
2022-09-06T16:51:21.896Z,100786.06
2022-09-06T16:53:49.386Z,100783.53
2022-09-06T16:56:19.373Z,100785.31
2022-09-06T16:58:54.324Z,100778.25
2022-09-06T17:01:21.886Z,100772.03
2022-09-06T17:03:48.666Z,100767.53
2022-09-06T17:06:16.037Z,100771.88
2022-09-06T17:08:43.246Z,100772.63
2022-09-06T17:11:14.734Z,100768.13
2022-09-06T17:13:41.761Z,100762.81
2022-09-06T17:16:26.899Z,100771.56
2022-09-06T17:18:53.925Z,100772.38
2022-09-06T17:21:22.306Z,100772.34
2022-09-06T17:23:49.526Z,100766.94
2022-09-06T17:26:17.328Z,100764.28
2022-09-06T17:28:43.791Z,100755.41
2022-09-06T17:31:10.359Z,100761.56
2022-09-06T17:33:37.228Z,100766.81
2022-09-06T17:36:11.748Z,100757.00
2022-09-06T17:38:42.751Z,100748.03
2022-09-06T17:41:20.834Z,100745.22
2022-09-06T17:43:48.542Z,100757.50
2022-09-06T17:46:15.156Z,100764.47
2022-09-06T17:48:43.053Z,100766.22
2022-09-06T17:51:11.424Z,100764.44
2022-09-06T17:53:38.733Z,100759.88
2022-09-06T17:56:06.977Z,100763.38
2022-09-06T17:58:33.468Z,100770.31
2022-09-06T18:01:17.907Z,100772.81
2022-09-06T18:03:46.195Z,100767.41
2022-09-06T18:06:15.091Z,100762.91
2022-09-06T18:08:44.173Z,100763.63
2022-09-06T18:11:20.020Z,100760.03
2022-09-06T18:13:47.150Z,100760.03
2022-09-06T18:16:14.786Z,100764.28
2022-09-06T18:18:42.533Z,100770.38
2022-09-06T18:21:09.081Z,100766.81
2022-09-06T18:23:36.265Z,100767.63
2022-09-06T18:26:06.032Z,100772.03
2022-09-06T18:28:35.346Z,100779.81
2022-09-06T18:31:10.080Z,100793.41
2022-09-06T18:33:37.720Z,100801.66
2022-09-06T18:36:06.700Z,100803.03
2022-09-06T18:38:37.299Z,100803.69
2022-09-06T18:41:05.806Z,100795.50
2022-09-06T18:43:40.157Z,100804.09
2022-09-06T18:46:15.930Z,100805.84
2022-09-06T18:48:42.505Z,100810.19
2022-09-06T18:51:11.477Z,100813.59
2022-09-06T18:53:42.705Z,100813.28
2022-09-06T18:56:13.224Z,100806.13
2022-09-06T18:58:40.401Z,100811.44
2022-09-06T19:01:11.141Z,100817.56
2022-09-06T19:03:38.726Z,100808.66
2022-09-06T19:06:17.609Z,100801.50
2022-09-06T19:08:44.593Z,100798.78
2022-09-06T19:11:14.340Z,100806.72
2022-09-06T19:13:41.828Z,100801.44
2022-09-06T19:16:09.968Z,100801.38
2022-09-06T19:18:37.041Z,100810.09
2022-09-06T19:21:12.951Z,100809.13
2022-09-06T19:23:42.298Z,100812.69
2022-09-06T19:26:14.556Z,100808.19
2022-09-06T19:28:41.321Z,100813.38
2022-09-06T19:31:13.274Z,100813.31
2022-09-06T19:33:40.674Z,100807.88
2022-09-06T19:36:12.057Z,100809.69
2022-09-06T19:39:01.529Z,100800.75
2022-09-06T19:41:27.025Z,100809.47
2022-09-06T19:43:55.617Z,100809.56
2022-09-06T19:46:23.150Z,100813.19
2022-09-06T19:48:52.069Z,100817.66
2022-09-06T19:51:19.903Z,100813.19
2022-09-06T19:53:53.073Z,100814.06
2022-09-06T19:56:23.224Z,100806.88
2022-09-06T19:58:57.910Z,100807.75
2022-09-06T20:01:26.314Z,100800.72
2022-09-06T20:03:52.948Z,100797.38
2022-09-06T20:06:20.062Z,100797.50
2022-09-06T20:08:50.879Z,100791.34
2022-09-06T20:11:17.985Z,100782.50
2022-09-06T20:13:44.507Z,100778.09
2022-09-06T20:16:12.905Z,100775.59
2022-09-06T20:18:39.972Z,100777.53
2022-09-06T20:21:07.174Z,100779.34
2022-09-06T20:23:34.757Z,100778.47
2022-09-06T20:26:10.198Z,100779.34
2022-09-06T20:28:37.145Z,100779.28
2022-09-06T20:31:09.035Z,100782.66
2022-09-06T20:33:35.913Z,100783.47
2022-09-06T20:36:05.405Z,100782.56
2022-09-06T20:38:33.726Z,100791.47
2022-09-06T20:41:05.613Z,100787.13
2022-09-06T20:43:35.172Z,100788.91
2022-09-06T20:46:04.229Z,100799.50
2022-09-06T20:48:32.678Z,100788.19
2022-09-06T20:51:01.868Z,100784.69
2022-09-06T20:53:30.196Z,100788.19
2022-09-06T20:55:58.566Z,100795.25
2022-09-06T20:58:25.694Z,100798.78
2022-09-06T21:00:52.519Z,100798.81
2022-09-06T21:03:19.171Z,100805.66
2022-09-06T21:05:45.884Z,100796.38
2022-09-06T21:08:12.629Z,100804.00
2022-09-06T21:10:39.076Z,100812.25
2022-09-06T21:13:05.853Z,100819.38
2022-09-06T21:15:40.980Z,100818.53
2022-09-06T21:18:08.920Z,100815.91
2022-09-06T21:20:35.941Z,100822.19
2022-09-06T21:23:02.703Z,100834.63
2022-09-06T21:25:29.481Z,100837.94
2022-09-06T21:27:56.041Z,100858.94
2022-09-06T21:30:22.565Z,100860.56
2022-09-06T21:32:49.362Z,100854.34
2022-09-06T21:35:15.934Z,100850.97
2022-09-06T21:37:42.364Z,100838.09
2022-09-06T21:40:09.450Z,100828.72
2022-09-06T21:42:35.930Z,100823.47
2022-09-06T21:45:02.416Z,100829.69
2022-09-06T21:47:30.324Z,100829.69
2022-09-06T21:49:57.221Z,100827.88
2022-09-06T21:52:23.807Z,100836.19
2022-09-06T21:54:50.266Z,100830.50
2022-09-06T21:57:17.119Z,100824.94
2022-09-06T21:59:43.563Z,100821.78
2022-09-06T22:02:10.161Z,100821.63
2022-09-06T22:04:36.631Z,100816.22
2022-09-06T22:07:03.978Z,100821.25
2022-09-06T22:09:30.487Z,100824.56
2022-09-06T22:11:56.941Z,100826.66
2022-09-06T22:14:23.458Z,100823.34
2022-09-06T22:16:51.945Z,100820.50
2022-09-06T22:19:18.387Z,100812.69
2022-09-06T22:21:45.476Z,100820.75
2022-09-06T22:24:13.205Z,100821.56
2022-09-06T22:26:41.068Z,100815.94
2022-09-06T22:29:09.344Z,100824.41
2022-09-06T22:31:36.913Z,100814.59
2022-09-06T22:34:04.101Z,100816.28
2022-09-06T22:36:30.674Z,100816.50
2022-09-06T22:38:57.726Z,100820.03
2022-09-06T22:41:26.412Z,100813.72
2022-09-06T22:43:53.416Z,100810.00
2022-09-06T22:46:20.231Z,100805.63
2022-09-06T22:48:46.812Z,100800.50
2022-09-06T22:51:13.379Z,100800.59
2022-09-06T22:53:39.801Z,100805.63
2022-09-06T22:56:06.552Z,100808.00
2022-09-06T22:58:35.133Z,100807.91
2022-09-06T23:01:12.989Z,100809.66
2022-09-06T23:03:39.722Z,100813.97
2022-09-06T23:06:06.468Z,100808.81
2022-09-06T23:08:35.304Z,100810.50
2022-09-06T23:11:12.987Z,100821.00
2022-09-06T23:13:43.477Z,100818.06
2022-09-06T23:16:47.408Z,100815.03
2022-09-06T23:19:13.964Z,100809.75
2022-09-06T23:21:40.446Z,100823.94
2022-09-06T23:24:07.265Z,100820.28
2022-09-06T23:26:33.796Z,100830.88
2022-09-06T23:29:00.296Z,100821.25
2022-09-06T23:31:29.380Z,100817.81
2022-09-06T23:33:57.342Z,100818.13
2022-09-06T23:36:24.610Z,100814.75
2022-09-06T23:38:51.256Z,100823.47
2022-09-06T23:41:17.826Z,100829.31
2022-09-06T23:43:44.462Z,100825.28
2022-09-06T23:46:13.012Z,100835.03
2022-09-06T23:48:39.500Z,100831.34
2022-09-06T23:51:06.001Z,100830.50
2022-09-06T23:53:33.056Z,100829.69
2022-09-06T23:55:59.638Z,100826.88
2022-09-06T23:58:26.168Z,100828.53
